地図

経路データ

SID SEASON NUMBER BASIN SUBBASIN NAME ISO_TIME NATURE LAT LON WMO_WIND WMO_PRES WMO_AGENCY TRACK_TYPE DIST2LAND LANDFALL IFLAG USA_AGENCY USA_ATCF_ID USA_LAT USA_LON USA_RECORD USA_STATUS USA_WIND USA_PRES USA_SSHS USA_R34_NE USA_R34_SE USA_R34_SW USA_R34_NW USA_R50_NE USA_R50_SE USA_R50_SW USA_R50_NW USA_R64_NE USA_R64_SE USA_R64_SW USA_R64_NW USA_POCI USA_ROCI USA_RMW USA_EYE TOKYO_LAT TOKYO_LON TOKYO_GRADE TOKYO_WIND TOKYO_PRES TOKYO_R50_DIR TOKYO_R50_LONG TOKYO_R50_SHORT TOKYO_R30_DIR TOKYO_R30_LONG TOKYO_R30_SHORT TOKYO_LAND CMA_LAT CMA_LON CMA_CAT CMA_WIND CMA_PRES HKO_LAT HKO_LON HKO_CAT HKO_WIND HKO_PRES NEWDELHI_LAT NEWDELHI_LON NEWDELHI_GRADE NEWDELHI_WIND NEWDELHI_PRES NEWDELHI_CI NEWDELHI_DP NEWDELHI_POCI REUNION_LAT REUNION_LON REUNION_TYPE REUNION_WIND REUNION_PRES REUNION_TNUM REUNION_CI REUNION_RMW REUNION_R34_NE REUNION_R34_SE REUNION_R34_SW REUNION_R34_NW REUNION_R50_NE REUNION_R50_SE REUNION_R50_SW REUNION_R50_NW REUNION_R64_NE REUNION_R64_SE REUNION_R64_SW REUNION_R64_NW BOM_LAT BOM_LON BOM_TYPE BOM_WIND BOM_PRES BOM_TNUM BOM_CI BOM_RMW BOM_R34_NE BOM_R34_SE BOM_R34_SW BOM_R34_NW BOM_R50_NE BOM_R50_SE BOM_R50_SW BOM_R50_NW BOM_R64_NE BOM_R64_SE BOM_R64_SW BOM_R64_NW BOM_ROCI BOM_POCI BOM_EYE BOM_POS_METHOD BOM_PRES_METHOD NADI_LAT NADI_LON NADI_CAT NADI_WIND NADI_PRES WELLINGTON_LAT WELLINGTON_LON WELLINGTON_WIND WELLINGTON_PRES DS824_LAT DS824_LON DS824_STAGE DS824_WIND DS824_PRES TD9636_LAT TD9636_LON TD9636_STAGE TD9636_WIND TD9636_PRES TD9635_LAT TD9635_LON TD9635_WIND TD9635_PRES TD9635_ROCI NEUMANN_LAT NEUMANN_LON NEUMANN_CLASS NEUMANN_WIND NEUMANN_PRES MLC_LAT MLC_LON MLC_CLASS MLC_WIND MLC_PRES USA_GUST BOM_GUST BOM_GUST_PER REUNION_GUST REUNION_GUST_PER USA_SEAHGT USA_SEARAD_NE USA_SEARAD_SE USA_SEARAD_SW USA_SEARAD_NW STORM_SPEED STORM_DIR
2007066S12066 2007 12 SI MM INDLALA 2007-03-07 00:00:00 TS -11.6000 66.1000 main 1308 1307 O___________O_ jtwc_sh SH192007 -11.6000 66.1000 DB 15 1006 -3 -11.6000 66.1000 TC 15 3 126
2007066S12066 2007 12 SI MM INDLALA 2007-03-07 03:00:00 TS -11.6775 66.2050 main 1307 1306 P___________P_ SH192007 -11.6775 66.2050 DB 15 1006 -3 -11.6775 66.2050 TC 15 3 135
2007066S12066 2007 12 SI MM INDLALA 2007-03-07 06:00:00 TS -11.8000 66.3000 main 1306 1298 O___________O_ jtwc_sh SH192007 -11.8000 66.3000 DB 15 1006 -3 -11.8000 66.3000 TC 15 4 153
2007066S12066 2007 12 SI MM INDLALA 2007-03-07 09:00:00 TS -11.9925 66.3725 main 1298 1282 P___________P_ SH192007 -11.9925 66.3725 DB 15 1006 -3 -11.9925 66.3725 TC 15 4 167
2007066S12066 2007 12 SI MM INDLALA 2007-03-07 12:00:00 TS -12.2000 66.4000 main 1282 1266 O___________O_ jtwc_sh SH192007 -12.2000 66.4000 DB 15 1006 -3 -12.2000 66.4000 TC 15 4 184
2007066S12066 2007 12 SI MM INDLALA 2007-03-07 15:00:00 TS -12.3650 66.3650 main 1266 1250 P___________P_ SH192007 -12.3650 66.3650 DB 15 1006 -3 -12.3650 66.3650 TC 15 3 197
2007066S12066 2007 12 SI MM INDLALA 2007-03-07 18:00:00 TS -12.5000 66.3000 main 1250 1243 O___________O_ jtwc_sh SH192007 -12.5000 66.3000 DB 15 1006 -3 -12.5000 66.3000 TC 15 3 204
2007066S12066 2007 12 SI MM INDLALA 2007-03-07 21:00:00 TS -12.6150 66.2500 main 1243 1227 P___________P_ SH192007 -12.6150 66.2500 DB 15 1006 -3 -12.6150 66.2500 TC 15 2 207
2007066S12066 2007 12 SI MM INDLALA 2007-03-08 00:00:00 TS -12.7000 66.2000 main 1227 1219 O___________O_ jtwc_sh SH192007 -12.7000 66.2000 DB 15 1006 -3 -12.7000 66.2000 TC 15 2 212
2007066S12066 2007 12 SI MM INDLALA 2007-03-08 03:00:00 TS -12.7575 66.1575 main 1219 1211 P___________P_ SH192007 -12.7575 66.1575 DB 15 1006 -3 -12.7575 66.1575 TC 15 1 223
2007066S12066 2007 12 SI MM INDLALA 2007-03-08 06:00:00 TS -12.8000 66.1000 main 1211 1196 O___________O_ jtwc_sh SH192007 -12.8000 66.1000 DB 15 1006 -3 -12.8000 66.1000 TC 15 2 236
2007066S12066 2007 12 SI MM INDLALA 2007-03-08 09:00:00 TS -12.8575 66.0075 main 1196 1188 P___________P_ SH192007 -12.8575 66.0075 DB 15 1006 -3 -12.8575 66.0075 TC 15 2 243
2007066S12066 2007 12 SI MM INDLALA 2007-03-08 12:00:00 TS -12.9000 65.9000 main 1188 1180 O___________O_ jtwc_sh SH192007 -12.9000 65.9000 DB 15 1006 -3 -12.9000 65.9000 TC 15 2 256
2007066S12066 2007 12 SI MM INDLALA 2007-03-08 15:00:00 TS -12.9075 65.8000 main 1180 1172 P___________P_ SH192007 -12.9075 65.8000 DB 15 1006 -3 -12.9075 65.8000 TC 15 2 270
2007066S12066 2007 12 SI MM INDLALA 2007-03-08 18:00:00 TS -12.9000 65.7000 main 1172 1165 O___________O_ jtwc_sh SH192007 -12.9000 65.7000 DB 15 1006 -3 -12.9000 65.7000 TC 15 2 275
2007066S12066 2007 12 SI MM INDLALA 2007-03-08 21:00:00 TS -12.8925 65.6075 main 1165 1157 P___________P_ SH192007 -12.8925 65.6075 DB 15 1006 -3 -12.8925 65.6075 TC 15 2 270
2007066S12066 2007 12 SI MM INDLALA 2007-03-09 00:00:00 TS -12.9000 65.5000 main 1157 1149 O___________O_ jtwc_sh SH192007 -12.9000 65.5000 DB 15 1006 -3 -12.9000 65.5000 TC 15 2 262
2007066S12066 2007 12 SI MM INDLALA 2007-03-09 03:00:00 TS -12.9275 65.3650 main 1149 1142 P___________P_ SH192007 -12.9275 65.3650 DB 15 1006 -3 -12.9275 65.3650 TC 15 2 270
2007066S12066 2007 12 SI MM INDLALA 2007-03-09 06:00:00 TS -12.9000 65.2889 20 1006 reunion main 1142 1119 O____O______O_ jtwc_sh SH192007 -13.0000 65.2000 DB 15 1006 -3 -12.1000 66.0000 1 20 1006 1.00000 1.00000 -13.0000 65.2000 TC 15 9 2 247
2007066S12066 2007 12 SI MM INDLALA 2007-03-09 09:00:00 TS -13.0220 65.1386 main 1119 1088 P____P______P_ SH192007 -13.1275 65.0150 DB 15 1006 -3 -12.6002 65.6329 1 20 1005 -13.1275 65.0150 TC 15 5 227
2007066S12066 2007 12 SI MM INDLALA 2007-03-09 12:00:00 TS -13.2182 64.9364 20 1005 reunion main 1088 1056 O____O______O_ jtwc_sh SH192007 -13.3000 64.8000 DB 15 1006 -3 -13.0000 65.3000 1 20 1005 1.00000 1.00000 -13.3000 64.8000 TC 15 9 6 227
2007066S12066 2007 12 SI MM INDLALA 2007-03-09 15:00:00 TS -13.3974 64.7248 main 1056 1025 P____P______P_ SH192007 -13.4774 64.5799 DB 15 1006 -3 -13.2373 65.0147 1 21 1004 -13.4774 64.5799 TC 15 6 232
2007066S12066 2007 12 SI MM INDLALA 2007-03-09 18:00:00 TS -13.6000 64.4333 23 1004 reunion main 1018 979 O____O______O_ jtwc_sh SH192007 -13.7000 64.3000 DB 15 1006 -3 -13.4000 64.7000 2 23 1004 1.50000 1.50000 -13.7000 64.3000 TC 15 9 8 235
2007066S12066 2007 12 SI MM INDLALA 2007-03-09 21:00:00 TS -13.8516 64.0616 main 971 918 P____P______P_ SH192007 -13.9849 63.9449 DB 15 1006 -3 -13.5849 64.2948 2 23 1004 -13.9849 63.9449 TC 15 10 237
2007066S12066 2007 12 SI MM INDLALA 2007-03-10 00:00:00 TS -14.1333 63.6000 23 1004 reunion main 918 849 O____O______O_ jtwc_sh SH192007 -14.3000 63.5000 DB 15 1006 -3 -13.8000 63.8000 2 23 1004 1.50000 1.50000 -14.3000 63.5000 TC 15 9 11 237
2007066S12066 2007 12 SI MM INDLALA 2007-03-10 03:00:00 TS -14.4683 63.0661 main 849 790 P____P______P_ SH192007 -14.6450 62.9803 DB 17 1005 -3 -14.1149 63.2377 2 23 1004 -14.6450 62.9803 TC 17 13 241
2007066S12066 2007 12 SI MM INDLALA 2007-03-10 06:00:00 TS -14.7333 62.4667 23 1004 reunion main 790 732 O____O______O_ jtwc_sh SH192007 -14.9000 62.4000 DB 20 1004 -3 -14.4000 62.6000 2 23 1004 1.50000 1.50000 -14.9000 62.4000 TC 20 9 13 252
2007066S12066 2007 12 SI MM INDLALA 2007-03-10 09:00:00 TS -14.8543 61.8158 main 726 699 P____P______P_ SH192007 -14.9901 61.7774 DB 22 1003 -3 -14.5826 61.8927 2 23 1003 -14.9901 61.7774 TC 22 12 267
2007066S12066 2007 12 SI MM INDLALA 2007-03-10 12:00:00 TS -14.8000 61.2000 23 1003 reunion main 699 692 O____O______O_ jtwc_sh SH192007 -14.9000 61.2000 DB 25 1002 -3 1008 175 50 -14.6000 61.2000 2 23 1003 1.50000 1.50000 -14.9000 61.2000 TC 25 9 11 286
2007066S12066 2007 12 SI MM INDLALA 2007-03-10 15:00:00 TS -14.5490 60.7022 main 702 698 P____P______P_ SH192007 -14.6298 60.7623 DB 27 1001 -3 1008 175 45 -14.3875 60.5820 2 24 1002 -14.6298 60.7623 TC 27 10 303
2007066S12066 2007 12 SI MM INDLALA 2007-03-10 18:00:00 TS -14.2333 60.3000 25 1001 reunion main 715 711 O____O______O_ jtwc_sh SH192007 -14.3000 60.4000 DB 30 1000 -3 1008 175 40 -14.1000 60.1000 2 25 1001 2.00000 2.00000 -14.3000 60.4000 TC 30 9 9 306
2007066S12066 2007 12 SI MM INDLALA 2007-03-10 21:00:00 TS -14.0324 59.9560 main 725 718 P____P______P_ SH192007 -14.0775 60.0276 DB 30 1000 -3 1009 207 40 -13.9423 59.8128 2 26 1000 -14.0775 60.0276 TC 30 7 301
2007066S12066 2007 12 SI MM INDLALA 2007-03-11 00:00:00 TS -13.8667 59.6667 27 1000 reunion main 725 722 O____O______O_ jtwc_sh SH192007 -13.9000 59.7000 DB 30 1000 -3 1010 240 40 -13.8000 59.6000 2 27 1000 2.00000 2.00000 -13.9000 59.7000 TC 30 9 7 302
2007066S12066 2007 12 SI MM INDLALA 2007-03-11 03:00:00 TS -13.6750 59.3625 main 738 736 P____P______P_ SH192007 -13.7275 59.4125 DB 30 1000 -3 1010 240 40 -13.5701 59.2624 2 28 999 -13.7275 59.4125 TC 30 6 303
2007066S12066 2007 12 SI MM INDLALA 2007-03-11 06:00:00 TS -13.5333 59.1333 30 998 reunion main 753 753 O____O______O_ jtwc_sh SH192007 -13.6000 59.2000 DB 30 1000 -3 1010 240 40 -13.4000 59.0000 2 30 998 2.50000 2.50000 -13.6000 59.2000 TC 30 9 3 300
2007066S12066 2007 12 SI MM INDLALA 2007-03-11 09:00:00 TS -13.5066 59.0668 main 753 751 P____P______P_ SH192007 -13.5424 59.1001 DB 30 1000 -3 1009 220 40 -13.4349 59.0001 2 30 998 -13.5424 59.1001 TC 30 1 284
2007066S12066 2007 12 SI MM INDLALA 2007-03-11 12:00:00 TS -13.5000 59.0000 30 998 reunion main 751 749 O____O______O_ jtwc_sh SH192007 -13.5000 59.0000 DB 30 1000 -3 1009 200 40 -13.5000 59.0000 2 30 998 2.50000 2.50000 -13.5000 59.0000 TC 30 9 3 288
2007066S12066 2007 12 SI MM INDLALA 2007-03-11 15:00:00 TS -13.4101 58.7533 main 758 755 P____P______P_ SH192007 -13.4075 58.7725 DB 32 998 -3 1008 230 40 -13.4152 58.7149 2 30 997 -13.4075 58.7725 TC 32 6 291
2007066S12066 2007 12 SI MM INDLALA 2007-03-11 18:00:00 TS -13.3000 58.4667 30 997 reunion main 765 763 O____O______O_ jtwc_sh SH192007 -13.3000 58.5000 TC 35 996 0 1007 260 40 -13.3000 58.4000 2 30 997 2.50000 2.50000 -13.3000 58.5000 TC 35 9 5 292
2007066S12066 2007 12 SI MM INDLALA 2007-03-11 21:00:00 TS -13.2141 58.2667 main 774 773 P____P______P_ SH192007 -13.1925 58.2500 TC 37 995 0 1008 262 37 -13.2574 58.3001 2 32 996 -13.1925 58.2500 TC 37 4 293
2007066S12066 2007 12 SI MM INDLALA 2007-03-12 00:00:00 TS -13.1333 58.0667 35 995 reunion main 784 783 O____O______O_ jtwc_sh SH192007 -13.1000 58.0000 TC 40 994 0 45 50 45 45 1009 265 35 -13.2000 58.2000 3 35 995 2.50000 2.50000 26 64 75 80 53 -13.1000 58.0000 TC 40 9 5 291
2007066S12066 2007 12 SI MM INDLALA 2007-03-12 03:00:00 TS -13.0400 57.8100 main 794 794 P____P______P_ SH192007 -13.0425 57.7500 TC 42 992 0 52 52 52 47 -13.0350 57.9298 3 37 993 23 64 75 80 53 -13.0425 57.7500 TC 42 5 288
2007066S12066 2007 12 SI MM INDLALA 2007-03-12 06:00:00 TS -12.9667 57.5333 40 991 reunion main 794 777 O____O______O_ jtwc_sh SH192007 -13.0000 57.5000 TC 45 991 0 60 55 60 50 -12.9000 57.6000 3 40 991 3.00000 3.00000 21 64 75 80 53 -13.0000 57.5000 TC 45 9 5 281
2007066S12066 2007 12 SI MM INDLALA 2007-03-12 09:00:00 TS -12.9424 57.2892 main 777 747 P____P______P_ SH192007 -12.9499 57.2725 TC 50 987 0 65 60 65 60 12 12 12 12 -12.9274 57.3226 3 42 989 17 72 83 85 58 -12.9499 57.2725 TC 50 5 274
2007066S12066 2007 12 SI MM INDLALA 2007-03-12 12:00:00 TS -12.9333 57.0000 45 987 reunion main 747 706 O____O______O_ jtwc_sh SH192007 -12.9000 57.0000 TC 55 984 0 70 65 70 70 25 25 25 25 1006 180 25 -13.0000 57.0000 3 45 987 3.50000 3.50000 13 80 91 91 64 -12.9000 57.0000 TC 55 9 7 273
2007066S12066 2007 12 SI MM INDLALA 2007-03-12 15:00:00 TS -12.9025 56.6033 main 706 666 P____P______P_ SH192007 -12.8425 56.6225 TC 57 981 0 70 72 72 70 27 27 27 27 -13.0226 56.5650 3 50 983 11 88 99 99 72 -12.8425 56.6225 TC 57 8 275
2007066S12066 2007 12 SI MM INDLALA 2007-03-12 18:00:00 TS -12.8667 56.1667 55 980 reunion main 666 627 O____O______O_ jtwc_sh SH192007 -12.8000 56.2000 TS 60 978 0 70 80 75 70 30 30 30 30 -13.0000 56.1000 3 55 980 4.00000 4.00000 9 97 107 107 80 13 13 13 13 -12.8000 56.2000 TC 60 9 8 276
2007066S12066 2007 12 SI MM INDLALA 2007-03-12 21:00:00 TS -12.8208 55.7541 main 627 584 P____P______P_ SH192007 -12.7850 55.7925 TS 65 975 1 77 90 82 77 35 35 35 35 12 12 12 12 -12.8925 55.6774 3 57 977 11 102 112 112 85 14 15 15 14 -12.7850 55.7925 TC 65 8 275
2007066S12066 2007 12 SI MM INDLALA 2007-03-13 00:00:00 TS -12.8000 55.3667 60 975 reunion main 584 542 O____O______O_ jtwc_sh SH192007 -12.8000 55.4000 TC 70 972 1 85 100 90 85 40 40 40 40 25 25 25 25 1007 225 10 10 -12.8000 55.3000 3 60 975 4.00000 4.00000 13 107 118 118 91 16 18 18 16 -12.8000 55.4000 TC 70 9 7 269
2007066S12066 2007 12 SI MM INDLALA 2007-03-13 03:00:00 TS -12.8299 55.0184 main 542 508 P____P______P_ SH192007 -12.8350 55.0350 TC 72 969 1 92 110 105 92 45 45 45 45 27 27 27 27 1005 215 12 -12.8199 54.9851 3 62 972 14 112 121 123 94 18 21 21 18 -12.8350 55.0350 TC 72 7 261
2007066S12066 2007 12 SI MM INDLALA 2007-03-13 06:00:00 TS -12.9000 54.7000 65 970 reunion main 508 473 O____O______O_ jtwc_sh SH192007 -12.9000 54.7000 TC 75 967 1 100 120 120 100 50 50 50 50 30 30 30 30 1004 205 15 -12.9000 54.7000 4 65 970 4.50000 4.50000 16 118 124 129 97 21 24 24 21 -12.9000 54.7000 TC 75 9 6 255
2007066S12066 2007 12 SI MM INDLALA 2007-03-13 09:00:00 TS -12.9925 54.3925 main 473 439 P____P______P_ SH192007 -12.9924 54.3925 TC 75 967 1 100 120 120 100 50 50 50 50 30 30 30 30 1004 205 15 -12.9925 54.3925 4 67 967 15 118 124 129 97 21 24 24 21 -12.9924 54.3925 TC 75 6 251
2007066S12066 2007 12 SI MM INDLALA 2007-03-13 12:00:00 TS -13.1000 54.1000 70 965 reunion main 439 405 O____O______O_ jtwc_sh SH192007 -13.1000 54.1000 TC 75 967 1 100 120 120 100 50 50 50 50 30 30 30 30 1004 205 15 -13.1000 54.1000 4 70 965 4.50000 4.50000 15 118 124 129 97 21 24 24 21 -13.1000 54.1000 TC 75 9 6 251
2007066S12066 2007 12 SI MM INDLALA 2007-03-13 15:00:00 TS -13.1874 53.8266 main 405 382 P____P______P_ SH192007 -13.1849 53.8074 TC 75 967 1 100 120 120 100 50 50 50 50 30 30 30 30 1004 205 15 -13.1924 53.8649 4 72 962 14 118 126 129 99 23 28 28 23 -13.1849 53.8074 TC 75 6 250
2007066S12066 2007 12 SI MM INDLALA 2007-03-13 18:00:00 TS -13.3000 53.5333 75 960 reunion main 371 336 O____O______O_ jtwc_sh SH192007 -13.3000 53.5000 TC 75 967 1 100 120 120 100 50 50 50 50 30 30 30 30 1004 205 15 -13.3000 53.6000 4 75 960 5.00000 5.00000 13 118 129 129 102 26 32 32 26 -13.3000 53.5000 TC 75 9 7 246
2007066S12066 2007 12 SI MM INDLALA 2007-03-13 21:00:00 TS -13.4684 53.1692 main 336 291 P____P______P_ SH192007 -13.4850 53.1500 TC 82 960 1 125 150 150 125 55 60 60 55 32 37 37 32 1004 205 12 -13.4351 53.2075 4 77 957 13 118 131 129 104 29 36 36 29 -13.4850 53.1500 TC 82 8 243
2007066S12066 2007 12 SI MM INDLALA 2007-03-14 00:00:00 TS -13.6667 52.8000 80 955 reunion main 291 259 O____O______O_ jtwc_sh SH192007 -13.7000 52.8000 TC 90 954 2 150 180 180 150 60 70 70 60 35 45 45 35 1004 205 10 10 -13.6000 52.8000 4 80 955 5.00000 5.00000 13 118 134 129 107 32 40 40 32 -13.7000 52.8000 TC 90 9 8 239
2007066S12066 2007 12 SI MM INDLALA 2007-03-14 03:00:00 TS -13.8616 52.4949 main 259 220 P____P______P_ SH192007 -13.8999 52.4999 TC 95 949 2 150 185 177 145 60 70 70 60 35 45 45 35 1004 205 17 -13.7849 52.4849 4 82 952 13 118 134 129 102 34 44 44 34 -13.8999 52.4999 TC 95 7 236
2007066S12066 2007 12 SI MM INDLALA 2007-03-14 06:00:00 TS -14.0667 52.2000 85 950 reunion main 220 181 O____O______O_ jtwc_sh SH192007 -14.1000 52.2000 TC 100 944 3 150 190 175 140 60 70 70 60 35 45 45 35 1004 205 25 20 -14.0000 52.2000 4 85 950 5.50000 5.50000 13 118 134 129 97 37 48 48 37 -14.1000 52.2000 TC 100 9 8 235
2007066S12066 2007 12 SI MM INDLALA 2007-03-14 09:00:00 TS -14.2958 51.8617 main 181 141 P____P______P_ SH192007 -14.3150 51.8426 TC 107 935 3 155 192 182 140 60 62 65 57 37 42 42 37 1004 205 22 -14.2575 51.9000 4 87 946 13 118 131 126 91 40 50 50 40 -14.3150 51.8426 TC 107 8 236
2007066S12066 2007 12 SI MM INDLALA 2007-03-14 12:00:00 TS -14.5000 51.5333 90 942 reunion main 133 109 O____O______O_ jtwc_sh SH192007 -14.5000 51.5000 TC 115 927 4 160 195 190 140 60 55 60 55 40 40 40 40 1004 205 20 25 -14.5000 51.6000 4 90 942 5.50000 5.50000 13 118 129 124 86 43 53 53 43 -14.5000 51.5000 TC 115 9 7 239
2007066S12066 2007 12 SI MM INDLALA 2007-03-14 15:00:00 TS -14.6416 51.2566 main 109 77 P____P______P_ SH192007 -14.6224 51.2349 TC 117 930 4 155 180 170 140 62 60 57 55 42 42 37 37 1003 215 12 -14.6800 51.3000 4 92 938 13 121 129 115 80 45 56 53 44 -14.6224 51.2349 TC 117 6 246
2007066S12066 2007 12 SI MM INDLALA 2007-03-14 18:00:00 TS -14.7333 51.0000 95 935 reunion main 77 44 O____O______O_ jtwc_sh SH192007 -14.7000 51.0000 TY 120 933 4 150 165 150 140 65 65 55 55 45 45 35 35 1002 225 5 5 -14.8000 51.0000 4 95 935 5.50000 5.50000 13 124 129 107 75 48 59 53 45 -14.7000 51.0000 TC 120 9 5 254
2007066S12066 2007 12 SI MM INDLALA 2007-03-14 21:00:00 TS -14.7883 50.7183 main 44 24 P____P______P_ SH192007 -14.7500 50.7424 TY 115 937 4 142 155 132 127 62 62 52 52 42 42 32 32 1002 230 5 -14.8650 50.6699 4 95 935 11 126 129 96 64 48 56 45 38 -14.7500 50.7424 TC 115 5 259
2007066S12066 2007 12 SI MM INDLALA 2007-03-15 00:00:00 TS -14.8333 50.4667 95 935 reunion main 24 0 O____O______O_ jtwc_sh SH192007 -14.8000 50.5000 TY 110 941 3 135 145 115 115 60 60 50 50 40 40 30 30 1003 235 5 5 -14.9000 50.4000 4 95 935 5.00000 5.50000 9 129 129 86 53 48 53 37 32 -14.8000 50.5000 TC 110 9 4 256
2007066S12066 2007 12 SI MM INDLALA 2007-03-15 03:00:00 TS -14.8941 50.2924 main 0 0 P____P______P_ SH192007 -14.8775 50.2924 TY 105 942 3 130 137 110 110 60 60 47 47 40 40 30 30 1003 235 10 -14.9274 50.2924 4 90 942 12 126 126 83 50 48 50 34 29 -14.8775 50.2924 TC 105 4 243
2007066S12066 2007 12 SI MM INDLALA 2007-03-15 06:00:00 TS -15.0000 50.1333 85 950 reunion main 0 0 O____O______O_ jtwc_sh SH192007 -15.0000 50.1000 TC 100 944 3 125 130 105 105 60 60 45 45 40 40 30 30 1003 235 15 -15.0000 50.2000 4 85 950 4.50000 5.50000 16 124 124 80 48 48 48 32 26 -15.0000 50.1000 TC 100 9 5 231
2007066S12066 2007 12 SI MM INDLALA 2007-03-15 09:00:00 TS -15.1800 49.9267 main 0 0 P____P______P_ SH192007 -15.1850 49.9075 TC 92 951 2 125 130 105 105 60 60 45 45 40 40 30 30 1003 232 17 -15.1701 49.9651 4 72 962 17 102 97 61 37 37 40 29 23 -15.1850 49.9075 TC 92 6 226
2007066S12066 2007 12 SI MM INDLALA 2007-03-15 12:00:00 TS -15.4000 49.7000 60 975 reunion main 0 0 O____O______O_ jtwc_sh SH192007 -15.4000 49.7000 TC 85 958 2 125 130 105 105 60 60 45 45 40 40 30 30 1003 230 20 -15.4000 49.7000 3 60 975 3.50000 4.00000 18 80 70 43 26 26 32 26 21 -15.4000 49.7000 TC 85 9 6 223
2007066S12066 2007 12 SI MM INDLALA 2007-03-15 15:00:00 TS -15.6240 49.4941 main 0 0 P____P______P_ SH192007 -15.6000 49.4650 TC 77 965 1 125 130 105 105 60 60 45 45 40 40 30 30 1003 230 20 -15.6722 49.5524 3 52 980 58 51 34 26 -15.6000 49.4650 TC 77 6 226
2007066S12066 2007 12 SI MM INDLALA 2007-03-15 18:00:00 TS -15.8333 49.2333 45 985 reunion main 0 0 O____O______O_ jtwc_sh SH192007 -15.8000 49.2000 TC 70 972 1 125 130 105 105 60 60 45 45 40 40 30 30 1003 230 20 -15.9000 49.3000 3 45 985 9.90000 37 32 26 26 -15.8000 49.2000 TC 70 9 7 239
2007066S12066 2007 12 SI MM INDLALA 2007-03-15 21:00:00 TS -16.0035 48.8408 main 0 0 P____P______P_ SH192007 -16.0150 48.9150 TC 62 978 0 125 130 105 105 60 60 45 45 1003 230 20 -15.9806 48.6924 3 37 -16.0150 48.9150 TC 62 8 249
2007066S12066 2007 12 SI MM INDLALA 2007-03-16 00:00:00 TS -16.1333 48.4333 30 reunion main 0 0 O____O______O_ jtwc_sh SH192007 -16.2000 48.6000 TC 55 984 0 125 130 105 105 60 60 45 45 1003 230 20 -16.0000 48.1000 8 30 9.90000 -16.2000 48.6000 TC 55 9 7 253
2007066S12066 2007 12 SI MM INDLALA 2007-03-16 03:00:00 TS -16.2191 48.1274 main 0 0 P____P______P_ SH192007 -16.3226 48.2350 TC 45 990 0 125 130 105 105 1003 230 27 -16.0121 47.9123 8 27 -16.3226 48.2350 TC 45 6 253
2007066S12066 2007 12 SI MM INDLALA 2007-03-16 06:00:00 TS -16.3000 47.8667 25 reunion main 0 0 O____O______O_ jtwc_sh SH192007 -16.4000 47.9000 TC 35 997 0 125 130 105 105 1003 230 35 -16.1000 47.8000 8 25 9.90000 -16.4000 47.9000 TC 35 9 6 248
2007066S12066 2007 12 SI MM INDLALA 2007-03-16 09:00:00 TS -16.4259 47.5893 main 0 0 P____P______P_ SH192007 -16.4574 47.6699 TC 32 998 -1 1003 230 35 -16.3627 47.4279 8 -16.4574 47.6699 TC 32 6 241
2007066S12066 2007 12 SI MM INDLALA 2007-03-16 12:00:00 TS -16.5667 47.3667 reunion main 0 0 O____O______O_ jtwc_sh SH192007 -16.5000 47.5000 DB 30 1000 -3 1003 230 35 -16.7000 47.1000 8 9.90000 -16.5000 47.5000 TC 30 9 4 233
2007066S12066 2007 12 SI MM INDLALA 2007-03-16 15:00:00 TS -16.6875 47.2316 main 0 0 P____P______P_ SH192007 -16.5350 47.3275 DB 30 1000 -3 1003 230 37 -16.9924 47.0398 8 -16.5350 47.3275 TC 30 3 215
2007066S12066 2007 12 SI MM INDLALA 2007-03-16 18:00:00 TS -16.8333 47.1667 995 reunion main 0 0 O____O______O_ jtwc_sh SH192007 -16.6000 47.2000 DB 30 1000 -3 1003 230 40 -17.3000 47.1000 8 995 9.90000 -16.6000 47.2000 TC 30 9 4 198
2007066S12066 2007 12 SI MM INDLALA 2007-03-16 21:00:00 TS -17.0375 47.1101 main 0 0 P____P______P_ SH192007 -16.7425 47.0976 DB 27 1001 -3 -17.6275 47.1350 8 -16.7425 47.0976 TC 27 5 180
2007066S12066 2007 12 SI MM INDLALA 2007-03-17 00:00:00 TS -17.3400 47.1400 reunion main 0 0 O____O______O_ jtwc_sh SH192007 -16.9000 47.1000 DB 25 1002 -3 -18.0000 47.2000 8 9.90000 -16.9000 47.1000 TC 25 9 7 167
2007066S12066 2007 12 SI MM INDLALA 2007-03-17 03:00:00 TS -17.7288 47.2774 main 0 0 P____P______P_ SH192007 -17.0151 47.2549 DB 25 1002 -3 -18.4425 47.2999 8 -17.0151 47.2549 TC 25 10 164
2007066S12066 2007 12 SI MM INDLALA 2007-03-17 06:00:00 TS -18.3000 47.4333 reunion main 0 0 O____O______O_ jtwc_sh SH192007 -17.1000 47.5000 DB 25 1002 -3 -18.9000 47.4000 8 9.90000 -17.1000 47.5000 TC 25 9 16 174
2007066S12066 2007 12 SI MM INDLALA 2007-03-17 09:00:00 NR -19.2775 47.4576 main 0 0 _____P________ SH192007 DB -3 -19.2775 47.4576 8 TC 14 177
2007066S12066 2007 12 SI MM INDLALA 2007-03-17 12:00:00 NR -19.7000 47.5000 reunion main 0 0 _____O________ -19.7000 47.5000 8 9.90000 9 10 175
2007066S12066 2007 12 SI MM INDLALA 2007-03-17 15:00:00 NR -20.2325 47.5427 main 0 0 _____P________ -20.2325 47.5427 8 12 175
2007066S12066 2007 12 SI MM INDLALA 2007-03-17 18:00:00 NR -20.9000 47.6000 reunion main 0 0 _____O________ -20.9000 47.6000 8 9.90000 9 15 174
2007066S12066 2007 12 SI MM INDLALA 2007-03-17 21:00:00 NR -21.7200 47.6924 main 0 0 _____P________ -21.7200 47.6924 8 17 174
2007066S12066 2007 12 SI MM INDLALA 2007-03-18 00:00:00 NR -22.6000 47.8000 reunion main 0 0 _____O________ -22.6000 47.8000 8 9.90000 9 17 176
2007066S12066 2007 12 SI MM INDLALA 2007-03-18 03:00:00 NR -23.3846 47.8268 main 10 10 _____P________ -23.3846 47.8268 8 16 173
2007066S12066 2007 12 SI MM INDLALA 2007-03-18 06:00:00 TS -24.2000 48.0000 25 1004 reunion main 55 55 _____O________ -24.2000 48.0000 1 25 1004 9.90000 9 18 160
2007066S12066 2007 12 SI MM INDLALA 2007-03-18 09:00:00 TS -25.0905 48.5248 main 138 138 _____P________ -25.0905 48.5248 1 27 1003 22 150
2007066S12066 2007 12 SI MM INDLALA 2007-03-18 12:00:00 TS -26.1000 49.2000 30 1002 reunion main 243 243 _____O________ -26.1000 49.2000 2 30 1002 9.90000 9 25 152
2007066S12066 2007 12 SI MM INDLALA 2007-03-18 15:00:00 TS -27.3002 49.8438 main 371 371 _____P________ -27.3002 49.8437 2 30 1002 26 156
2007066S12066 2007 12 SI MM INDLALA 2007-03-18 18:00:00 TS -28.5000 50.4000 30 1002 reunion main 507 507 _____O________ -28.5000 50.4000 2 30 1002 9.90000 9 24 160
2007066S12066 2007 12 SI MM INDLALA 2007-03-18 21:00:00 TS -29.5095 50.7617 main 618 618 _____P________ -29.5095 50.7617 2 30 1002 20 165
2007066S12066 2007 12 SI MM INDLALA 2007-03-19 00:00:00 TS -30.4000 51.0000 30 1002 reunion main 710 710 _____O________ -30.4000 51.0000 2 30 1002 9.90000 9 19 168
2007066S12066 2007 12 SI MM INDLALA 2007-03-19 03:00:00 TS -31.3123 51.2153 main 804 804 _____P________ -31.3123 51.2153 2 30 1002 16 168
2007066S12066 2007 12 SI MM INDLALA 2007-03-19 06:00:00 TS -32.0000 51.4000 30 1003 reunion main 881 881 _____O________ -32.0000 51.4000 6 30 1003 9.90000 9 11 162
2007066S12066 2007 12 SI MM INDLALA 2007-03-19 09:00:00 TS -32.3126 51.5951 main 919 919 _____P________ -32.3126 51.5951 6 27 1003 5 140
2007066S12066 2007 12 SI MM INDLALA 2007-03-19 12:00:00 TS -32.4000 51.8000 25 1004 reunion main 939 _____O________ -32.4000 51.8000 6 25 1004 9.90000 9 4 117

IBTrACS Databaseについて

本データベースは、米国NOAAが公開する1842年以降の世界の熱帯低気圧のベストトラックデータアーカイブInternational Best Track Archive for Climate Stewardship (IBTrACS)を、ウェブで閲覧しやすい形式に変換したものです。

最終更新日:2021-11-26